HOURLY OBS INDEX

028

Peninsula - south

LOCKHART RIVER AIRPORT

Site: 028008
Alt: 18.5m
155km E of WEIPA


  Time     Wind        Temp  DP   Baro     Rain since   Rain past  Vis(m), Cloud(base in m), Weather
  local        km/h                         9am  last   hr   10m    
Thu 15:00    S  6/  9  27.0 26.0  1005.5   28.0   0.0   6.6   0.0   10000|SC1590 SC2100 
Thu 15:30    C  0/  6  28.5 26.5  1005.3   28.0   0.0   0.0   0.0   10000 
Thu 16:00  NNE  4/  7  28.9 26.5  1005.0   28.0   0.0   0.0   0.0   10000|SC1980 SC2220 
Thu 16:30  NNE  2/  7  29.0 26.8  1005.1   28.0   0.0   0.0   0.0   10000|SC 630 BR2040 BR2370 
Thu 17:00    N  6/ 11  28.7 26.5  1005.2   28.0   0.0   0.0   0.0   10000|SC 750 
Thu 17:30   NW 11/ 15  27.0 24.8  1005.7   28.4   0.4   0.4   0.2   10000|SC 660 SC3000 
Thu 18:00  NNW  6/ 11  26.5 25.5  1005.8   29.0   0.6   1.0   0.2   10000|BR3300 
Thu 18:00  NNW  6/ 11  26.5 25.5  1005.8   29.0   0.0  ----   0.2   10000|BR3300 
Thu 18:30    C  0/  0  26.5 25.5  1006.2   29.0   0.0   0.6   0.0   10000|SC1620 BR3300 
Thu 19:00    C  0/  0  26.6 25.7  1006.5   29.0   0.0   0.0   0.0   10000|BR 570 BR1470 BR1650 
Thu 19:30    C  0/  0  26.4 25.7  1006.3   29.0   0.0   0.0   0.0   10000|SC 570 
Thu 20:00    C  0/  0  26.2 25.7  1006.5   29.0   0.0   0.0   0.0   10000|SC 630 SC1440 
Thu 20:00    C  0/  0  26.2 25.7  1006.5   29.0   0.0  ----   0.0   10000|SC 630 SC1440 
Thu 20:00    C  0/  0  26.2 25.7  1006.5   29.0   0.0  ----   0.0   10000|SC 630 SC1440 
Thu 20:30    C  0/  0  26.3 25.8  1006.9   29.0   0.0   0.0   0.0   10000 

PALMERVILLE

Site: 028004
Alt: 203.8m
138km WSW of COOKTOWN


  Time     Wind        Temp  DP   Baro     Rain since   Rain past  Vis(m), Cloud(base in m), Weather
  local        km/h                         9am  last   hr   10m    
Thu 15:00  WNW 13/ 22  34.1 19.4  1004.5    0.0   0.0   0.0   0.0   ----- 
Thu 15:30  NNW  6/ 15  35.2 20.3  1003.9    0.0   0.0   0.0   0.0   ----- 
Thu 16:00  WNW 11/ 17  35.3 22.3  1003.6    0.0   0.0   0.0   0.0   ----- 
Thu 16:30  NNE 11/ 19  34.8 20.0  1003.7    0.0   0.0   0.0   0.0   ----- 
Thu 17:00    N  9/ 13  34.7 19.9  1004.0    0.0   0.0   0.0   0.0   ----- 
Thu 17:30    N 11/ 19  34.8 19.2  1004.3    0.0   0.0   0.0   0.0   ----- 
Thu 18:00  NNW  7/ 11  34.3 21.0  1004.5    0.0   0.0   0.0   0.0   ----- 
Thu 18:00  NNW  7/ 11  34.3 21.0  1004.5    0.0   0.0  ----   0.0   ----- 
Thu 18:30    N  7/ 13  33.6 19.7  1005.0    0.0   0.0   0.0   0.0   ----- 
Thu 19:00    C  0/  6  32.1 20.4  1005.2    0.0   0.0   0.0   0.0   ----- 
Thu 19:30    C  0/  0  30.9 22.2  1005.7    0.0   0.0   0.0   0.0   ----- 
Thu 20:00    C  0/  0  30.6 21.9  1006.0    0.0   0.0   0.0   0.0   ----- 
Thu 20:00    C  0/  0  30.6 21.9  1006.0    0.0   0.0  ----   0.0   ----- 
Thu 20:00    C  0/  0  30.6 21.9  1006.0    0.0   0.0  ----   0.0   ----- 
Thu 20:30   NW  7/ 20  31.1 22.4  1006.7    0.0   0.0   0.0   0.0   -----